sensor_id;sensor_type;location;lat;lon;timestamp;temperature;humidity
21280;DHT22;11764;43.100;25.716;2022-07-03T00:01:55;22.80;99.90
21280;DHT22;11764;43.100;25.716;2022-07-03T00:04:20;22.70;99.90
21280;DHT22;11764;43.100;25.716;2022-07-03T00:06:46;22.60;99.90
21280;DHT22;11764;43.100;25.716;2022-07-03T00:09:12;22.60;99.90
21280;DHT22;11764;43.100;25.716;2022-07-03T00:11:37;22.60;99.90
21280;DHT22;11764;43.100;25.716;2022-07-03T00:14:03;22.60;99.90
21280;DHT22;11764;43.100;25.716;2022-07-03T00:16:29;22.70;99.90
21280;DHT22;11764;43.100;25.716;2022-07-03T00:18:55;22.70;99.90
21280;DHT22;11764;43.100;25.716;2022-07-03T00:24:19;22.50;99.90
21280;DHT22;11764;43.100;25.716;2022-07-03T00:26:45;22.50;99.90
21280;DHT22;11764;43.100;25.716;2022-07-03T00:29:15;22.60;99.90
21280;DHT22;11764;43.100;25.716;2022-07-03T00:31:40;22.80;99.90
21280;DHT22;11764;43.100;25.716;2022-07-03T00:34:06;23.00;99.90
21280;DHT22;11764;43.100;25.716;2022-07-03T00:36:36;23.20;99.90
21280;DHT22;11764;43.100;25.716;2022-07-03T00:39:02;23.10;99.90
21280;DHT22;11764;43.100;25.716;2022-07-03T00:41:29;23.00;99.90
21280;DHT22;11764;43.100;25.716;2022-07-03T00:43:55;22.80;99.90
21280;DHT22;11764;43.100;25.716;2022-07-03T00:46:25;22.70;99.90
21280;DHT22;11764;43.100;25.716;2022-07-03T00:48:51;23.00;99.90
21280;DHT22;11764;43.100;25.716;2022-07-03T00:51:24;23.00;99.90
21280;DHT22;11764;43.100;25.716;2022-07-03T00:53:51;23.00;99.90
21280;DHT22;11764;43.100;25.716;2022-07-03T00:56:19;22.90;99.90
21280;DHT22;11764;43.100;25.716;2022-07-03T00:58:44;23.00;99.90
21280;DHT22;11764;43.100;25.716;2022-07-03T01:01:10;23.10;99.90
21280;DHT22;11764;43.100;25.716;2022-07-03T01:03:39;23.30;99.90
21280;DHT22;11764;43.100;25.716;2022-07-03T01:06:09;23.30;99.90
21280;DHT22;11764;43.100;25.716;2022-07-03T01:08:49;23.20;99.90
21280;DHT22;11764;43.100;25.716;2022-07-03T01:11:28;23.00;99.90
21280;DHT22;11764;43.100;25.716;2022-07-03T01:16:41;22.70;99.90
21280;DHT22;11764;43.100;25.716;2022-07-03T01:22:04;22.70;99.90
21280;DHT22;11764;43.100;25.716;2022-07-03T01:27:13;22.50;99.90
21280;DHT22;11764;43.100;25.716;2022-07-03T01:32:11;22.40;99.90
21280;DHT22;11764;43.100;25.716;2022-07-03T01:34:37;22.20;99.90
21280;DHT22;11764;43.100;25.716;2022-07-03T01:37:05;22.30;99.90
21280;DHT22;11764;43.100;25.716;2022-07-03T01:39:32;22.00;99.90
21280;DHT22;11764;43.100;25.716;2022-07-03T01:41:59;21.80;99.90
21280;DHT22;11764;43.100;25.716;2022-07-03T01:44:25;21.90;99.90
21280;DHT22;11764;43.100;25.716;2022-07-03T01:46:53;22.00;99.90
21280;DHT22;11764;43.100;25.716;2022-07-03T01:49:21;22.10;99.90
21280;DHT22;11764;43.100;25.716;2022-07-03T01:51:51;22.10;99.90
21280;DHT22;11764;43.100;25.716;2022-07-03T01:54:17;22.20;99.90
21280;DHT22;11764;43.100;25.716;2022-07-03T01:56:45;22.10;99.90
21280;DHT22;11764;43.100;25.716;2022-07-03T01:59:11;22.10;99.90
21280;DHT22;11764;43.100;25.716;2022-07-03T02:04:11;22.00;99.90
21280;DHT22;11764;43.100;25.716;2022-07-03T02:06:40;21.90;99.90
21280;DHT22;11764;43.100;25.716;2022-07-03T02:09:08;22.00;99.90
21280;DHT22;11764;43.100;25.716;2022-07-03T02:11:36;22.10;99.90
21280;DHT22;11764;43.100;25.716;2022-07-03T02:17:25;22.30;99.90
21280;DHT22;11764;43.100;25.716;2022-07-03T02:20:12;22.40;99.90
21280;DHT22;11764;43.100;25.716;2022-07-03T02:22:11;22.30;99.90
21280;DHT22;11764;43.100;25.716;2022-07-03T02:24:47;22.20;99.90
21280;DHT22;11764;43.100;25.716;2022-07-03T02:27:22;22.20;99.90
21280;DHT22;11764;43.100;25.716;2022-07-03T02:30:03;22.10;99.90
21280;DHT22;11764;43.100;25.716;2022-07-03T02:32:30;21.90;99.90
21280;DHT22;11764;43.100;25.716;2022-07-03T02:35:00;22.00;99.90
21280;DHT22;11764;43.100;25.716;2022-07-03T02:37:28;21.90;99.90
21280;DHT22;11764;43.100;25.716;2022-07-03T02:40:07;21.90;99.90
21280;DHT22;11764;43.100;25.716;2022-07-03T02:42:54;21.70;99.90
21280;DHT22;11764;43.100;25.716;2022-07-03T02:45:21;21.70;99.90
21280;DHT22;11764;43.100;25.716;2022-07-03T02:47:53;21.60;99.90
21280;DHT22;11764;43.100;25.716;2022-07-03T02:50:22;21.50;99.90
21280;DHT22;11764;43.100;25.716;2022-07-03T02:52:58;21.30;99.90
21280;DHT22;11764;43.100;25.716;2022-07-03T02:58:05;21.30;99.90
21280;DHT22;11764;43.100;25.716;2022-07-03T03:00:39;21.50;99.90
21280;DHT22;11764;43.100;25.716;2022-07-03T03:03:08;21.70;99.90
21280;DHT22;11764;43.100;25.716;2022-07-03T03:05:46;21.80;99.90
21280;DHT22;11764;43.100;25.716;2022-07-03T03:10:40;21.70;99.90
21280;DHT22;11764;43.100;25.716;2022-07-03T03:13:09;21.90;99.90
21280;DHT22;11764;43.100;25.716;2022-07-03T03:15:36;21.90;99.90
21280;DHT22;11764;43.100;25.716;2022-07-03T03:18:05;22.00;99.90
21280;DHT22;11764;43.100;25.716;2022-07-03T03:20:33;22.10;99.90
21280;DHT22;11764;43.100;25.716;2022-07-03T03:23:09;22.10;99.90
21280;DHT22;11764;43.100;25.716;2022-07-03T03:25:36;22.30;99.90
21280;DHT22;11764;43.100;25.716;2022-07-03T03:28:01;22.40;99.90
21280;DHT22;11764;43.100;25.716;2022-07-03T03:30:27;22.60;99.90
21280;DHT22;11764;43.100;25.716;2022-07-03T03:32:53;22.80;99.90
21280;DHT22;11764;43.100;25.716;2022-07-03T03:35:19;23.00;99.90
21280;DHT22;11764;43.100;25.716;2022-07-03T03:37:45;23.40;99.90
21280;DHT22;11764;43.100;25.716;2022-07-03T03:40:11;23.70;99.90
21280;DHT22;11764;43.100;25.716;2022-07-03T03:42:37;23.80;99.90
21280;DHT22;11764;43.100;25.716;2022-07-03T03:45:02;23.90;99.90
21280;DHT22;11764;43.100;25.716;2022-07-03T03:47:28;24.10;99.90
21280;DHT22;11764;43.100;25.716;2022-07-03T03:49:54;24.10;99.90
21280;DHT22;11764;43.100;25.716;2022-07-03T03:52:19;24.20;99.90
21280;DHT22;11764;43.100;25.716;2022-07-03T03:54:45;24.10;99.90
21280;DHT22;11764;43.100;25.716;2022-07-03T03:57:15;24.10;99.90
21280;DHT22;11764;43.100;25.716;2022-07-03T03:59:41;24.20;99.90
21280;DHT22;11764;43.100;25.716;2022-07-03T04:02:06;24.30;99.90
21280;DHT22;11764;43.100;25.716;2022-07-03T04:04:32;24.50;99.90
21280;DHT22;11764;43.100;25.716;2022-07-03T04:06:57;24.80;99.90
21280;DHT22;11764;43.100;25.716;2022-07-03T04:09:23;25.00;99.90
21280;DHT22;11764;43.100;25.716;2022-07-03T04:11:48;25.20;99.90
21280;DHT22;11764;43.100;25.716;2022-07-03T04:14:14;25.30;99.90
21280;DHT22;11764;43.100;25.716;2022-07-03T04:16:39;25.40;99.90
21280;DHT22;11764;43.100;25.716;2022-07-03T04:19:05;25.40;99.90
21280;DHT22;11764;43.100;25.716;2022-07-03T04:21:30;25.50;99.90
21280;DHT22;11764;43.100;25.716;2022-07-03T04:23:56;25.40;99.90
21280;DHT22;11764;43.100;25.716;2022-07-03T04:26:21;25.40;99.90
21280;DHT22;11764;43.100;25.716;2022-07-03T04:28:47;25.40;99.90
21280;DHT22;11764;43.100;25.716;2022-07-03T04:31:12;25.30;99.90
21280;DHT22;11764;43.100;25.716;2022-07-03T04:33:38;25.40;99.90
21280;DHT22;11764;43.100;25.716;2022-07-03T04:36:04;25.30;99.90
21280;DHT22;11764;43.100;25.716;2022-07-03T04:38:30;25.40;99.90
21280;DHT22;11764;43.100;25.716;2022-07-03T04:40:56;25.50;99.90
21280;DHT22;11764;43.100;25.716;2022-07-03T04:43:21;25.50;99.90
21280;DHT22;11764;43.100;25.716;2022-07-03T04:45:47;25.60;99.90
21280;DHT22;11764;43.100;25.716;2022-07-03T04:48:13;25.70;99.90
21280;DHT22;11764;43.100;25.716;2022-07-03T04:50:38;25.80;99.90
21280;DHT22;11764;43.100;25.716;2022-07-03T04:53:04;25.90;99.90
21280;DHT22;11764;43.100;25.716;2022-07-03T04:55:29;26.10;99.90
21280;DHT22;11764;43.100;25.716;2022-07-03T04:57:55;26.20;99.90
21280;DHT22;11764;43.100;25.716;2022-07-03T05:00:20;26.20;99.90
21280;DHT22;11764;43.100;25.716;2022-07-03T05:02:46;26.20;99.90
21280;DHT22;11764;43.100;25.716;2022-07-03T05:05:12;26.30;99.90
21280;DHT22;11764;43.100;25.716;2022-07-03T05:07:37;26.40;99.90
21280;DHT22;11764;43.100;25.716;2022-07-03T05:10:03;26.40;99.90
21280;DHT22;11764;43.100;25.716;2022-07-03T05:12:28;26.40;99.90
21280;DHT22;11764;43.100;25.716;2022-07-03T05:14:54;26.30;99.90
21280;DHT22;11764;43.100;25.716;2022-07-03T05:17:20;26.40;99.90
21280;DHT22;11764;43.100;25.716;2022-07-03T05:19:45;26.50;99.90
21280;DHT22;11764;43.100;25.716;2022-07-03T05:22:11;26.50;99.90
21280;DHT22;11764;43.100;25.716;2022-07-03T05:24:37;26.70;99.90
21280;DHT22;11764;43.100;25.716;2022-07-03T05:27:03;26.70;99.90
21280;DHT22;11764;43.100;25.716;2022-07-03T05:29:29;26.80;99.90
21280;DHT22;11764;43.100;25.716;2022-07-03T05:31:54;26.90;99.90
21280;DHT22;11764;43.100;25.716;2022-07-03T05:34:20;26.80;99.90
21280;DHT22;11764;43.100;25.716;2022-07-03T05:36:46;26.90;99.90
21280;DHT22;11764;43.100;25.716;2022-07-03T05:39:11;27.00;99.90
21280;DHT22;11764;43.100;25.716;2022-07-03T05:41:55;27.10;99.90
21280;DHT22;11764;43.100;25.716;2022-07-03T05:44:21;27.20;99.90
21280;DHT22;11764;43.100;25.716;2022-07-03T05:46:46;27.20;99.90
21280;DHT22;11764;43.100;25.716;2022-07-03T05:49:12;27.30;99.90
21280;DHT22;11764;43.100;25.716;2022-07-03T05:51:37;27.20;99.90
21280;DHT22;11764;43.100;25.716;2022-07-03T05:54:03;27.10;99.90
21280;DHT22;11764;43.100;25.716;2022-07-03T05:56:28;27.30;99.90
21280;DHT22;11764;43.100;25.716;2022-07-03T05:58:54;27.30;99.90
21280;DHT22;11764;43.100;25.716;2022-07-03T06:01:20;27.30;99.90
21280;DHT22;11764;43.100;25.716;2022-07-03T06:03:45;27.50;99.90
21280;DHT22;11764;43.100;25.716;2022-07-03T06:06:11;27.50;99.90
21280;DHT22;11764;43.100;25.716;2022-07-03T06:08:36;27.50;99.90
21280;DHT22;11764;43.100;25.716;2022-07-03T06:11:02;27.60;99.90
21280;DHT22;11764;43.100;25.716;2022-07-03T06:13:27;27.70;99.90
21280;DHT22;11764;43.100;25.716;2022-07-03T06:15:53;27.80;99.90
21280;DHT22;11764;43.100;25.716;2022-07-03T06:18:18;27.90;99.90
21280;DHT22;11764;43.100;25.716;2022-07-03T06:20:44;28.10;99.90
21280;DHT22;11764;43.100;25.716;2022-07-03T06:23:09;28.00;99.90
21280;DHT22;11764;43.100;25.716;2022-07-03T06:25:35;28.10;99.90
21280;DHT22;11764;43.100;25.716;2022-07-03T06:28:01;28.20;99.90
21280;DHT22;11764;43.100;25.716;2022-07-03T06:30:26;28.20;99.90
21280;DHT22;11764;43.100;25.716;2022-07-03T06:32:52;28.30;99.90
21280;DHT22;11764;43.100;25.716;2022-07-03T06:35:17;28.20;99.90
21280;DHT22;11764;43.100;25.716;2022-07-03T06:37:43;28.00;99.90
21280;DHT22;11764;43.100;25.716;2022-07-03T06:40:08;28.10;99.90
21280;DHT22;11764;43.100;25.716;2022-07-03T06:42:34;28.20;99.90
21280;DHT22;11764;43.100;25.716;2022-07-03T06:45:00;28.30;99.90
21280;DHT22;11764;43.100;25.716;2022-07-03T06:47:25;28.40;99.90
21280;DHT22;11764;43.100;25.716;2022-07-03T06:49:51;28.50;99.90
21280;DHT22;11764;43.100;25.716;2022-07-03T06:52:16;28.50;99.90
21280;DHT22;11764;43.100;25.716;2022-07-03T06:54:42;28.60;99.90
21280;DHT22;11764;43.100;25.716;2022-07-03T06:57:13;28.70;99.90
21280;DHT22;11764;43.100;25.716;2022-07-03T06:59:38;28.80;99.90
21280;DHT22;11764;43.100;25.716;2022-07-03T07:02:04;28.80;99.90
21280;DHT22;11764;43.100;25.716;2022-07-03T07:04:30;28.70;99.90
21280;DHT22;11764;43.100;25.716;2022-07-03T07:06:55;28.80;99.90
21280;DHT22;11764;43.100;25.716;2022-07-03T07:09:21;28.70;99.90
21280;DHT22;11764;43.100;25.716;2022-07-03T07:11:46;28.80;99.90
21280;DHT22;11764;43.100;25.716;2022-07-03T07:14:12;29.00;99.90
21280;DHT22;11764;43.100;25.716;2022-07-03T07:16:37;28.90;99.90
21280;DHT22;11764;43.100;25.716;2022-07-03T07:19:03;29.00;99.90
21280;DHT22;11764;43.100;25.716;2022-07-03T07:21:28;29.10;99.90
21280;DHT22;11764;43.100;25.716;2022-07-03T07:23:54;29.00;99.90
21280;DHT22;11764;43.100;25.716;2022-07-03T07:26:20;29.20;99.90
21280;DHT22;11764;43.100;25.716;2022-07-03T07:28:46;29.10;99.90
21280;DHT22;11764;43.100;25.716;2022-07-03T07:31:12;29.00;99.90
21280;DHT22;11764;43.100;25.716;2022-07-03T07:33:37;29.30;99.90
21280;DHT22;11764;43.100;25.716;2022-07-03T07:36:03;29.40;99.90
21280;DHT22;11764;43.100;25.716;2022-07-03T07:38:28;29.50;99.90
21280;DHT22;11764;43.100;25.716;2022-07-03T07:40:54;29.40;99.90
21280;DHT22;11764;43.100;25.716;2022-07-03T07:43:19;29.20;99.90
21280;DHT22;11764;43.100;25.716;2022-07-03T07:45:45;29.20;99.90
21280;DHT22;11764;43.100;25.716;2022-07-03T07:48:11;29.10;99.90
21280;DHT22;11764;43.100;25.716;2022-07-03T07:50:36;29.00;99.90
21280;DHT22;11764;43.100;25.716;2022-07-03T07:53:02;29.20;99.90
21280;DHT22;11764;43.100;25.716;2022-07-03T07:55:28;29.20;99.90
21280;DHT22;11764;43.100;25.716;2022-07-03T07:57:53;29.20;99.90
21280;DHT22;11764;43.100;25.716;2022-07-03T08:00:19;29.20;99.90
21280;DHT22;11764;43.100;25.716;2022-07-03T08:02:46;29.30;99.90
21280;DHT22;11764;43.100;25.716;2022-07-03T08:05:31;29.40;99.90
21280;DHT22;11764;43.100;25.716;2022-07-03T08:10:28;29.30;99.90
21280;DHT22;11764;43.100;25.716;2022-07-03T08:12:54;29.40;99.90
21280;DHT22;11764;43.100;25.716;2022-07-03T08:15:19;29.40;99.90
21280;DHT22;11764;43.100;25.716;2022-07-03T08:17:45;29.40;99.90
21280;DHT22;11764;43.100;25.716;2022-07-03T08:20:10;29.50;99.90
21280;DHT22;11764;43.100;25.716;2022-07-03T08:22:36;29.50;99.90
21280;DHT22;11764;43.100;25.716;2022-07-03T08:25:01;29.50;99.90
21280;DHT22;11764;43.100;25.716;2022-07-03T08:27:27;29.60;99.90
21280;DHT22;11764;43.100;25.716;2022-07-03T08:29:53;29.80;99.90
21280;DHT22;11764;43.100;25.716;2022-07-03T08:32:18;29.90;99.90
21280;DHT22;11764;43.100;25.716;2022-07-03T08:34:44;29.90;99.90
21280;DHT22;11764;43.100;25.716;2022-07-03T08:37:09;29.80;99.90
21280;DHT22;11764;43.100;25.716;2022-07-03T08:39:35;29.90;99.90
21280;DHT22;11764;43.100;25.716;2022-07-03T08:42:00;29.80;99.90
21280;DHT22;11764;43.100;25.716;2022-07-03T08:44:27;29.70;99.90
21280;DHT22;11764;43.100;25.716;2022-07-03T08:46:53;29.60;99.90
21280;DHT22;11764;43.100;25.716;2022-07-03T08:49:20;29.90;99.90
21280;DHT22;11764;43.100;25.716;2022-07-03T08:51:47;30.10;99.90
21280;DHT22;11764;43.100;25.716;2022-07-03T08:54:13;30.40;99.90
21280;DHT22;11764;43.100;25.716;2022-07-03T08:56:39;30.20;99.90
21280;DHT22;11764;43.100;25.716;2022-07-03T08:59:06;30.20;99.90
21280;DHT22;11764;43.100;25.716;2022-07-03T09:01:33;30.40;99.90
21280;DHT22;11764;43.100;25.716;2022-07-03T09:03:59;30.50;99.90
21280;DHT22;11764;43.100;25.716;2022-07-03T09:06:25;30.70;99.90
21280;DHT22;11764;43.100;25.716;2022-07-03T09:08:51;30.70;99.90
21280;DHT22;11764;43.100;25.716;2022-07-03T09:11:17;30.70;99.90
21280;DHT22;11764;43.100;25.716;2022-07-03T09:13:42;30.60;99.90
21280;DHT22;11764;43.100;25.716;2022-07-03T09:16:15;30.60;99.90
21280;DHT22;11764;43.100;25.716;2022-07-03T09:18:42;30.70;99.90
21280;DHT22;11764;43.100;25.716;2022-07-03T09:21:08;30.80;99.90
21280;DHT22;11764;43.100;25.716;2022-07-03T09:23:36;31.00;99.90
21280;DHT22;11764;43.100;25.716;2022-07-03T09:26:06;30.70;99.90
21280;DHT22;11764;43.100;25.716;2022-07-03T09:31:10;30.60;99.90
21280;DHT22;11764;43.100;25.716;2022-07-03T09:33:36;30.80;99.90
21280;DHT22;11764;43.100;25.716;2022-07-03T09:36:12;30.80;99.90
21280;DHT22;11764;43.100;25.716;2022-07-03T09:38:42;30.70;99.90
21280;DHT22;11764;43.100;25.716;2022-07-03T09:41:08;30.90;99.90
21280;DHT22;11764;43.100;25.716;2022-07-03T09:43:34;31.00;99.90
21280;DHT22;11764;43.100;25.716;2022-07-03T09:46:00;31.10;99.90
21280;DHT22;11764;43.100;25.716;2022-07-03T09:51:07;31.10;99.90
21280;DHT22;11764;43.100;25.716;2022-07-03T09:56:35;31.30;99.90
21280;DHT22;11764;43.100;25.716;2022-07-03T10:01:36;31.20;99.90
21280;DHT22;11764;43.100;25.716;2022-07-03T10:04:09;31.10;99.90
21280;DHT22;11764;43.100;25.716;2022-07-03T10:07:17;31.10;99.90
21280;DHT22;11764;43.100;25.716;2022-07-03T10:09:25;31.20;99.90
21280;DHT22;11764;43.100;25.716;2022-07-03T10:11:51;31.30;99.90
21280;DHT22;11764;43.100;25.716;2022-07-03T10:14:18;31.30;99.90
21280;DHT22;11764;43.100;25.716;2022-07-03T10:16:44;31.20;99.90
21280;DHT22;11764;43.100;25.716;2022-07-03T10:19:12;31.20;99.90
21280;DHT22;11764;43.100;25.716;2022-07-03T10:21:38;31.20;99.90
21280;DHT22;11764;43.100;25.716;2022-07-03T10:24:04;31.30;99.90
21280;DHT22;11764;43.100;25.716;2022-07-03T10:26:30;31.40;99.90
21280;DHT22;11764;43.100;25.716;2022-07-03T10:28:56;31.30;99.90
21280;DHT22;11764;43.100;25.716;2022-07-03T10:31:22;31.30;99.90
21280;DHT22;11764;43.100;25.716;2022-07-03T10:33:48;31.20;99.90
21280;DHT22;11764;43.100;25.716;2022-07-03T10:36:13;31.10;99.90
21280;DHT22;11764;43.100;25.716;2022-07-03T10:38:40;31.30;99.90
21280;DHT22;11764;43.100;25.716;2022-07-03T10:43:59;31.50;99.90
21280;DHT22;11764;43.100;25.716;2022-07-03T10:46:44;31.60;99.90
21280;DHT22;11764;43.100;25.716;2022-07-03T10:49:12;31.60;99.90
21280;DHT22;11764;43.100;25.716;2022-07-03T10:57:06;31.70;99.90
21280;DHT22;11764;43.100;25.716;2022-07-03T11:18:35;31.80;99.90
21280;DHT22;11764;43.100;25.716;2022-07-03T11:20:37;31.90;99.90
21280;DHT22;11764;43.100;25.716;2022-07-03T11:25:56;31.30;99.90
21280;DHT22;11764;43.100;25.716;2022-07-03T11:36:28;31.40;99.90
21280;DHT22;11764;43.100;25.716;2022-07-03T11:41:25;31.70;99.90
21280;DHT22;11764;43.100;25.716;2022-07-03T11:44:24;31.70;99.90
21280;DHT22;11764;43.100;25.716;2022-07-03T11:46:46;31.90;99.90
21280;DHT22;11764;43.100;25.716;2022-07-03T11:49:12;32.10;99.90
21280;DHT22;11764;43.100;25.716;2022-07-03T11:51:39;32.10;99.90
21280;DHT22;11764;43.100;25.716;2022-07-03T11:54:04;31.80;99.90
21280;DHT22;11764;43.100;25.716;2022-07-03T11:56:31;31.70;99.90
21280;DHT22;11764;43.100;25.716;2022-07-03T11:58:57;31.60;99.90
21280;DHT22;11764;43.100;25.716;2022-07-03T12:03:52;31.60;99.90
21280;DHT22;11764;43.100;25.716;2022-07-03T12:06:20;31.50;99.90
21280;DHT22;11764;43.100;25.716;2022-07-03T12:08:46;31.40;99.90
21280;DHT22;11764;43.100;25.716;2022-07-03T12:11:12;31.70;99.90
21280;DHT22;11764;43.100;25.716;2022-07-03T12:13:38;31.80;99.90
21280;DHT22;11764;43.100;25.716;2022-07-03T12:16:08;31.90;99.90
21280;DHT22;11764;43.100;25.716;2022-07-03T12:18:41;31.70;99.90
21280;DHT22;11764;43.100;25.716;2022-07-03T12:21:07;31.40;99.90
21280;DHT22;11764;43.100;25.716;2022-07-03T12:23:40;31.20;99.90
21280;DHT22;11764;43.100;25.716;2022-07-03T12:26:05;31.30;99.90
21280;DHT22;11764;43.100;25.716;2022-07-03T12:28:31;31.50;99.90
21280;DHT22;11764;43.100;25.716;2022-07-03T12:30:56;31.70;99.90
21280;DHT22;11764;43.100;25.716;2022-07-03T12:33:22;31.70;99.90
21280;DHT22;11764;43.100;25.716;2022-07-03T12:36:01;31.90;99.90
21280;DHT22;11764;43.100;25.716;2022-07-03T12:38:30;31.90;99.90
21280;DHT22;11764;43.100;25.716;2022-07-03T12:41:05;32.00;99.90
21280;DHT22;11764;43.100;25.716;2022-07-03T12:43:40;32.10;99.90
21280;DHT22;11764;43.100;25.716;2022-07-03T12:48:54;32.40;98.80
21280;DHT22;11764;43.100;25.716;2022-07-03T12:51:38;32.40;98.50
21280;DHT22;11764;43.100;25.716;2022-07-03T12:54:08;32.50;99.70
21280;DHT22;11764;43.100;25.716;2022-07-03T12:56:34;32.40;98.30
21280;DHT22;11764;43.100;25.716;2022-07-03T12:59:00;32.20;97.80
21280;DHT22;11764;43.100;25.716;2022-07-03T13:01:44;32.30;99.40
21280;DHT22;11764;43.100;25.716;2022-07-03T13:04:10;32.40;98.70
21280;DHT22;11764;43.100;25.716;2022-07-03T13:06:40;32.40;98.50
21280;DHT22;11764;43.100;25.716;2022-07-03T13:09:06;32.40;98.60
21280;DHT22;11764;43.100;25.716;2022-07-03T13:11:39;32.40;99.10
21280;DHT22;11764;43.100;25.716;2022-07-03T13:19:06;32.70;98.20
21280;DHT22;11764;43.100;25.716;2022-07-03T13:21:34;32.60;98.30
21280;DHT22;11764;43.100;25.716;2022-07-03T13:24:00;32.80;98.10
21280;DHT22;11764;43.100;25.716;2022-07-03T13:26:25;32.80;98.20
21280;DHT22;11764;43.100;25.716;2022-07-03T13:28:51;33.10;98.10
21280;DHT22;11764;43.100;25.716;2022-07-03T13:31:17;33.20;97.60
21280;DHT22;11764;43.100;25.716;2022-07-03T13:33:42;33.10;97.90
21280;DHT22;11764;43.100;25.716;2022-07-03T13:36:08;32.70;98.60
21280;DHT22;11764;43.100;25.716;2022-07-03T13:38:34;32.70;98.90
21280;DHT22;11764;43.100;25.716;2022-07-03T13:40:59;32.80;98.30
21280;DHT22;11764;43.100;25.716;2022-07-03T13:43:25;32.70;99.30
21280;DHT22;11764;43.100;25.716;2022-07-03T13:45:50;32.70;98.70
21280;DHT22;11764;43.100;25.716;2022-07-03T13:48:16;32.90;99.00
21280;DHT22;11764;43.100;25.716;2022-07-03T13:50:42;32.80;98.50
21280;DHT22;11764;43.100;25.716;2022-07-03T13:53:07;32.70;98.40
21280;DHT22;11764;43.100;25.716;2022-07-03T13:55:33;32.80;98.20
21280;DHT22;11764;43.100;25.716;2022-07-03T13:57:58;33.00;99.50
21280;DHT22;11764;43.100;25.716;2022-07-03T14:00:24;32.70;98.10
21280;DHT22;11764;43.100;25.716;2022-07-03T14:02:50;32.90;98.60
21280;DHT22;11764;43.100;25.716;2022-07-03T14:05:15;33.00;98.20
21280;DHT22;11764;43.100;25.716;2022-07-03T14:07:41;33.00;98.40
21280;DHT22;11764;43.100;25.716;2022-07-03T14:10:07;33.10;98.10
21280;DHT22;11764;43.100;25.716;2022-07-03T14:12:32;33.00;98.00
21280;DHT22;11764;43.100;25.716;2022-07-03T14:14:58;33.10;98.10
21280;DHT22;11764;43.100;25.716;2022-07-03T14:17:23;33.30;98.00
21280;DHT22;11764;43.100;25.716;2022-07-03T14:19:49;33.10;97.40
21280;DHT22;11764;43.100;25.716;2022-07-03T14:22:15;33.00;97.90
21280;DHT22;11764;43.100;25.716;2022-07-03T14:24:43;32.80;97.40
21280;DHT22;11764;43.100;25.716;2022-07-03T14:27:08;33.10;97.90
21280;DHT22;11764;43.100;25.716;2022-07-03T14:29:53;33.80;97.60
21280;DHT22;11764;43.100;25.716;2022-07-03T14:32:37;33.90;97.60
21280;DHT22;11764;43.100;25.716;2022-07-03T14:35:02;33.70;96.90
21280;DHT22;11764;43.100;25.716;2022-07-03T14:37:28;33.60;96.10
21280;DHT22;11764;43.100;25.716;2022-07-03T14:39:54;33.50;96.50
21280;DHT22;11764;43.100;25.716;2022-07-03T14:42:20;33.10;96.20
21280;DHT22;11764;43.100;25.716;2022-07-03T14:44:46;33.50;96.60
21280;DHT22;11764;43.100;25.716;2022-07-03T14:47:12;34.20;95.40
21280;DHT22;11764;43.100;25.716;2022-07-03T14:49:38;34.90;93.90
21280;DHT22;11764;43.100;25.716;2022-07-03T14:52:04;35.60;94.00
21280;DHT22;11764;43.100;25.716;2022-07-03T14:54:30;35.80;92.60
21280;DHT22;11764;43.100;25.716;2022-07-03T14:57:00;35.50;92.30
21280;DHT22;11764;43.100;25.716;2022-07-03T15:02:00;35.00;91.80
21280;DHT22;11764;43.100;25.716;2022-07-03T15:07:13;35.10;91.90
21280;DHT22;11764;43.100;25.716;2022-07-03T15:09:39;34.90;91.60
21280;DHT22;11764;43.100;25.716;2022-07-03T15:12:09;35.30;91.10
21280;DHT22;11764;43.100;25.716;2022-07-03T15:14:53;35.30;90.90
21280;DHT22;11764;43.100;25.716;2022-07-03T15:17:22;35.60;90.60
21280;DHT22;11764;43.100;25.716;2022-07-03T15:19:48;35.40;90.10
21280;DHT22;11764;43.100;25.716;2022-07-03T15:22:14;35.60;89.00
21280;DHT22;11764;43.100;25.716;2022-07-03T15:24:40;35.30;88.50
21280;DHT22;11764;43.100;25.716;2022-07-03T15:27:05;34.90;89.50
21280;DHT22;11764;43.100;25.716;2022-07-03T15:29:31;35.10;89.00
21280;DHT22;11764;43.100;25.716;2022-07-03T15:32:00;35.20;89.10
21280;DHT22;11764;43.100;25.716;2022-07-03T15:34:26;35.50;87.50
21280;DHT22;11764;43.100;25.716;2022-07-03T15:36:56;35.20;88.10
21280;DHT22;11764;43.100;25.716;2022-07-03T15:39:44;35.60;87.80
21280;DHT22;11764;43.100;25.716;2022-07-03T15:42:13;35.50;87.30
21280;DHT22;11764;43.100;25.716;2022-07-03T15:44:54;35.70;86.70
21280;DHT22;11764;43.100;25.716;2022-07-03T15:47:27;35.30;88.00
21280;DHT22;11764;43.100;25.716;2022-07-03T15:49:57;35.50;88.30
21280;DHT22;11764;43.100;25.716;2022-07-03T15:52:24;35.90;87.40
21280;DHT22;11764;43.100;25.716;2022-07-03T16:00:07;35.70;86.80
21280;DHT22;11764;43.100;25.716;2022-07-03T16:02:36;35.90;87.50
21280;DHT22;11764;43.100;25.716;2022-07-03T16:07:28;35.40;87.10
21280;DHT22;11764;43.100;25.716;2022-07-03T16:09:57;35.60;87.00
21280;DHT22;11764;43.100;25.716;2022-07-03T16:12:22;35.70;86.50
21280;DHT22;11764;43.100;25.716;2022-07-03T16:14:49;36.10;86.80
21280;DHT22;11764;43.100;25.716;2022-07-03T16:17:21;36.30;85.80
21280;DHT22;11764;43.100;25.716;2022-07-03T16:19:48;36.20;85.90
21280;DHT22;11764;43.100;25.716;2022-07-03T16:22:14;36.50;85.80
21280;DHT22;11764;43.100;25.716;2022-07-03T16:24:42;36.10;87.10
21280;DHT22;11764;43.100;25.716;2022-07-03T16:27:13;35.90;88.40
21280;DHT22;11764;43.100;25.716;2022-07-03T16:29:39;35.70;89.20
21280;DHT22;11764;43.100;25.716;2022-07-03T16:32:05;35.40;89.60
21280;DHT22;11764;43.100;25.716;2022-07-03T16:36:57;35.40;89.90
21280;DHT22;11764;43.100;25.716;2022-07-03T16:39:33;35.20;90.10
21280;DHT22;11764;43.100;25.716;2022-07-03T16:42:00;34.80;90.40
21280;DHT22;11764;43.100;25.716;2022-07-03T16:44:26;35.10;91.00
21280;DHT22;11764;43.100;25.716;2022-07-03T16:46:52;35.10;90.70
21280;DHT22;11764;43.100;25.716;2022-07-03T16:49:20;35.20;90.80
21280;DHT22;11764;43.100;25.716;2022-07-03T16:51:47;34.80;90.90
21280;DHT22;11764;43.100;25.716;2022-07-03T16:54:16;35.10;90.90
21280;DHT22;11764;43.100;25.716;2022-07-03T16:56:43;35.10;91.10
21280;DHT22;11764;43.100;25.716;2022-07-03T16:59:08;34.50;91.90
21280;DHT22;11764;43.100;25.716;2022-07-03T17:01:35;34.30;92.30